sensor_id;sensor_type;location;lat;lon;timestamp;temperature;humidity
48806;DHT22;34625;47.176;27.548;2023-03-14T00:02:07;21.50;56.20
48806;DHT22;34625;47.176;27.548;2023-03-14T00:04:34;21.50;55.90
48806;DHT22;34625;47.176;27.548;2023-03-14T00:07:00;21.60;55.60
48806;DHT22;34625;47.176;27.548;2023-03-14T00:09:26;21.50;55.90
48806;DHT22;34625;47.176;27.548;2023-03-14T00:11:55;21.50;55.80
48806;DHT22;34625;47.176;27.548;2023-03-14T00:14:21;21.50;55.50
48806;DHT22;34625;47.176;27.548;2023-03-14T00:16:47;21.50;55.80
48806;DHT22;34625;47.176;27.548;2023-03-14T00:19:13;21.70;55.50
48806;DHT22;34625;47.176;27.548;2023-03-14T00:21:39;21.70;55.30
48806;DHT22;34625;47.176;27.548;2023-03-14T00:24:06;21.60;55.30
48806;DHT22;34625;47.176;27.548;2023-03-14T00:26:32;21.60;55.30
48806;DHT22;34625;47.176;27.548;2023-03-14T00:28:59;21.50;55.20
48806;DHT22;34625;47.176;27.548;2023-03-14T00:31:25;21.50;55.60
48806;DHT22;34625;47.176;27.548;2023-03-14T00:33:52;21.50;55.50
48806;DHT22;34625;47.176;27.548;2023-03-14T00:36:19;21.50;55.50
48806;DHT22;34625;47.176;27.548;2023-03-14T00:38:47;21.30;45.80
48806;DHT22;34625;47.176;27.548;2023-03-14T00:41:17;21.20;55.90
48806;DHT22;34625;47.176;27.548;2023-03-14T00:43:43;21.20;55.70
48806;DHT22;34625;47.176;27.548;2023-03-14T00:46:10;21.20;55.40
48806;DHT22;34625;47.176;27.548;2023-03-14T00:48:39;21.20;55.40
48806;DHT22;34625;47.176;27.548;2023-03-14T00:51:06;21.30;55.50
48806;DHT22;34625;47.176;27.548;2023-03-14T00:53:36;21.30;55.50
48806;DHT22;34625;47.176;27.548;2023-03-14T00:56:05;21.30;55.20
48806;DHT22;34625;47.176;27.548;2023-03-14T00:58:31;21.20;55.00
48806;DHT22;34625;47.176;27.548;2023-03-14T01:00:57;21.20;55.20
48806;DHT22;34625;47.176;27.548;2023-03-14T01:03:24;21.20;55.10
48806;DHT22;34625;47.176;27.548;2023-03-14T01:05:50;21.30;55.10
48806;DHT22;34625;47.176;27.548;2023-03-14T01:08:16;21.20;54.60
48806;DHT22;34625;47.176;27.548;2023-03-14T01:10:42;21.10;54.40
48806;DHT22;34625;47.176;27.548;2023-03-14T01:13:09;21.20;55.00
48806;DHT22;34625;47.176;27.548;2023-03-14T01:15:36;21.30;53.50
48806;DHT22;34625;47.176;27.548;2023-03-14T01:18:03;21.20;54.70
48806;DHT22;34625;47.176;27.548;2023-03-14T01:20:29;21.30;54.40
48806;DHT22;34625;47.176;27.548;2023-03-14T01:22:55;21.10;54.90
48806;DHT22;34625;47.176;27.548;2023-03-14T01:25:22;21.20;54.80
48806;DHT22;34625;47.176;27.548;2023-03-14T01:27:48;21.10;53.90
48806;DHT22;34625;47.176;27.548;2023-03-14T01:30:14;21.10;54.60
48806;DHT22;34625;47.176;27.548;2023-03-14T01:32:40;21.10;53.60
48806;DHT22;34625;47.176;27.548;2023-03-14T01:35:06;21.00;54.90
48806;DHT22;34625;47.176;27.548;2023-03-14T01:37:33;21.10;54.10
48806;DHT22;34625;47.176;27.548;2023-03-14T01:39:59;20.90;54.50
48806;DHT22;34625;47.176;27.548;2023-03-14T01:42:25;21.10;52.90
48806;DHT22;34625;47.176;27.548;2023-03-14T01:44:57;21.10;54.50
48806;DHT22;34625;47.176;27.548;2023-03-14T01:47:24;21.10;54.50
48806;DHT22;34625;47.176;27.548;2023-03-14T01:49:59;21.10;53.10
48806;DHT22;34625;47.176;27.548;2023-03-14T01:52:37;21.20;52.90
48806;DHT22;34625;47.176;27.548;2023-03-14T01:55:13;21.10;53.90
48806;DHT22;34625;47.176;27.548;2023-03-14T01:57:43;21.10;54.10
48806;DHT22;34625;47.176;27.548;2023-03-14T02:00:18;21.20;53.10
48806;DHT22;34625;47.176;27.548;2023-03-14T02:02:50;21.30;53.90
48806;DHT22;34625;47.176;27.548;2023-03-14T02:05:23;21.20;53.60
48806;DHT22;34625;47.176;27.548;2023-03-14T02:07:56;21.10;53.70
48806;DHT22;34625;47.176;27.548;2023-03-14T02:10:32;21.20;54.20
48806;DHT22;34625;47.176;27.548;2023-03-14T02:13:03;20.90;54.30
48806;DHT22;34625;47.176;27.548;2023-03-14T02:15:47;21.00;54.70
48806;DHT22;34625;47.176;27.548;2023-03-14T02:18:32;21.10;54.80
48806;DHT22;34625;47.176;27.548;2023-03-14T02:21:42;21.00;54.60
48806;DHT22;34625;47.176;27.548;2023-03-14T02:24:20;20.90;54.60
48806;DHT22;34625;47.176;27.548;2023-03-14T02:27:14;20.90;54.70
48806;DHT22;34625;47.176;27.548;2023-03-14T02:29:53;20.80;54.70
48806;DHT22;34625;47.176;27.548;2023-03-14T02:32:22;20.90;54.50
48806;DHT22;34625;47.176;27.548;2023-03-14T02:34:54;20.80;54.40
48806;DHT22;34625;47.176;27.548;2023-03-14T02:37:24;20.90;54.10
48806;DHT22;34625;47.176;27.548;2023-03-14T02:39:52;20.90;52.40
48806;DHT22;34625;47.176;27.548;2023-03-14T02:42:19;20.90;52.30
48806;DHT22;34625;47.176;27.548;2023-03-14T02:44:52;21.00;54.20
48806;DHT22;34625;47.176;27.548;2023-03-14T02:47:20;20.90;54.00
48806;DHT22;34625;47.176;27.548;2023-03-14T02:49:48;20.90;53.90
48806;DHT22;34625;47.176;27.548;2023-03-14T02:52:14;20.80;53.80
48806;DHT22;34625;47.176;27.548;2023-03-14T02:54:40;20.90;53.90
48806;DHT22;34625;47.176;27.548;2023-03-14T02:57:06;20.90;54.00
48806;DHT22;34625;47.176;27.548;2023-03-14T02:59:33;20.90;54.10
48806;DHT22;34625;47.176;27.548;2023-03-14T03:02:06;20.80;54.00
48806;DHT22;34625;47.176;27.548;2023-03-14T03:04:32;20.90;50.00
48806;DHT22;34625;47.176;27.548;2023-03-14T03:06:58;20.70;53.60
48806;DHT22;34625;47.176;27.548;2023-03-14T03:09:24;20.80;51.90
48806;DHT22;34625;47.176;27.548;2023-03-14T03:11:51;20.70;53.60
48806;DHT22;34625;47.176;27.548;2023-03-14T03:14:21;20.80;52.10
48806;DHT22;34625;47.176;27.548;2023-03-14T03:16:47;20.80;53.70
48806;DHT22;34625;47.176;27.548;2023-03-14T03:19:14;20.70;52.40
48806;DHT22;34625;47.176;27.548;2023-03-14T03:21:40;20.90;52.50
48806;DHT22;34625;47.176;27.548;2023-03-14T03:24:06;20.80;52.40
48806;DHT22;34625;47.176;27.548;2023-03-14T03:26:34;20.90;51.60
48806;DHT22;34625;47.176;27.548;2023-03-14T03:29:03;20.80;53.30
48806;DHT22;34625;47.176;27.548;2023-03-14T03:31:30;20.90;52.60
48806;DHT22;34625;47.176;27.548;2023-03-14T03:33:57;20.90;51.90
48806;DHT22;34625;47.176;27.548;2023-03-14T03:36:25;20.90;50.70
48806;DHT22;34625;47.176;27.548;2023-03-14T03:38:51;20.80;53.10
48806;DHT22;34625;47.176;27.548;2023-03-14T03:41:17;20.80;53.10
48806;DHT22;34625;47.176;27.548;2023-03-14T03:43:43;20.90;53.40
48806;DHT22;34625;47.176;27.548;2023-03-14T03:46:12;20.90;53.40
48806;DHT22;34625;47.176;27.548;2023-03-14T03:48:38;20.80;53.10
48806;DHT22;34625;47.176;27.548;2023-03-14T03:51:05;20.80;53.30
48806;DHT22;34625;47.176;27.548;2023-03-14T03:53:32;20.80;53.50
48806;DHT22;34625;47.176;27.548;2023-03-14T03:55:59;20.80;53.40
48806;DHT22;34625;47.176;27.548;2023-03-14T03:58:26;21.00;51.70
48806;DHT22;34625;47.176;27.548;2023-03-14T04:00:52;20.80;53.30
48806;DHT22;34625;47.176;27.548;2023-03-14T04:03:18;20.70;53.00
48806;DHT22;34625;47.176;27.548;2023-03-14T04:05:44;20.80;52.20
48806;DHT22;34625;47.176;27.548;2023-03-14T04:08:10;20.90;52.70
48806;DHT22;34625;47.176;27.548;2023-03-14T04:10:37;20.80;53.00
48806;DHT22;34625;47.176;27.548;2023-03-14T04:13:07;20.80;51.40
48806;DHT22;34625;47.176;27.548;2023-03-14T04:15:34;20.80;53.00
48806;DHT22;34625;47.176;27.548;2023-03-14T04:18:07;20.90;52.30
48806;DHT22;34625;47.176;27.548;2023-03-14T04:20:34;21.00;52.70
48806;DHT22;34625;47.176;27.548;2023-03-14T04:23:01;21.00;51.80
48806;DHT22;34625;47.176;27.548;2023-03-14T04:25:27;21.00;52.40
48806;DHT22;34625;47.176;27.548;2023-03-14T04:27:56;21.10;52.70
48806;DHT22;34625;47.176;27.548;2023-03-14T04:30:25;21.00;52.80
48806;DHT22;34625;47.176;27.548;2023-03-14T04:32:55;21.00;52.50
48806;DHT22;34625;47.176;27.548;2023-03-14T04:35:24;21.00;53.10
48806;DHT22;34625;47.176;27.548;2023-03-14T04:37:53;21.10;52.50
48806;DHT22;34625;47.176;27.548;2023-03-14T04:40:21;21.00;53.00
48806;DHT22;34625;47.176;27.548;2023-03-14T04:42:49;21.00;52.60
48806;DHT22;34625;47.176;27.548;2023-03-14T04:45:15;21.20;52.60
48806;DHT22;34625;47.176;27.548;2023-03-14T04:47:42;21.10;52.60
48806;DHT22;34625;47.176;27.548;2023-03-14T04:50:12;21.20;52.70
48806;DHT22;34625;47.176;27.548;2023-03-14T04:52:38;21.30;52.70
48806;DHT22;34625;47.176;27.548;2023-03-14T04:55:05;21.40;56.20
48806;DHT22;34625;47.176;27.548;2023-03-14T04:57:31;21.70;56.80
48806;DHT22;34625;47.176;27.548;2023-03-14T04:59:58;22.30;61.50
48806;DHT22;34625;47.176;27.548;2023-03-14T05:02:44;22.50;58.10
48806;DHT22;34625;47.176;27.548;2023-03-14T05:05:19;22.60;54.80
48806;DHT22;34625;47.176;27.548;2023-03-14T05:08:00;22.60;50.30
48806;DHT22;34625;47.176;27.548;2023-03-14T05:10:41;22.50;47.70
48806;DHT22;34625;47.176;27.548;2023-03-14T05:13:25;22.40;47.30
48806;DHT22;34625;47.176;27.548;2023-03-14T05:16:09;22.30;47.20
48806;DHT22;34625;47.176;27.548;2023-03-14T05:18:45;22.20;48.00
48806;DHT22;34625;47.176;27.548;2023-03-14T05:21:32;22.20;49.20
48806;DHT22;34625;47.176;27.548;2023-03-14T05:24:17;22.20;48.30
48806;DHT22;34625;47.176;27.548;2023-03-14T05:27:09;22.20;50.20
48806;DHT22;34625;47.176;27.548;2023-03-14T05:30:05;22.10;48.00
48806;DHT22;34625;47.176;27.548;2023-03-14T05:32:41;22.10;50.10
48806;DHT22;34625;47.176;27.548;2023-03-14T05:35:31;22.20;49.60
48806;DHT22;34625;47.176;27.548;2023-03-14T05:38:26;22.00;48.90
48806;DHT22;34625;47.176;27.548;2023-03-14T05:41:15;22.10;51.10
48806;DHT22;34625;47.176;27.548;2023-03-14T05:44:00;22.00;51.00
48806;DHT22;34625;47.176;27.548;2023-03-14T05:46:55;22.10;52.00
48806;DHT22;34625;47.176;27.548;2023-03-14T05:49:49;22.10;47.50
48806;DHT22;34625;47.176;27.548;2023-03-14T05:52:38;22.10;45.80
48806;DHT22;34625;47.176;27.548;2023-03-14T05:55:08;22.00;42.60
48806;DHT22;34625;47.176;27.548;2023-03-14T05:57:54;22.20;43.20
48806;DHT22;34625;47.176;27.548;2023-03-14T06:00:39;22.00;41.80
48806;DHT22;34625;47.176;27.548;2023-03-14T06:03:35;22.00;41.40
48806;DHT22;34625;47.176;27.548;2023-03-14T06:06:01;22.00;44.60
48806;DHT22;34625;47.176;27.548;2023-03-14T06:08:27;22.30;45.20
48806;DHT22;34625;47.176;27.548;2023-03-14T06:10:54;22.20;45.40
48806;DHT22;34625;47.176;27.548;2023-03-14T06:13:26;22.30;42.70
48806;DHT22;34625;47.176;27.548;2023-03-14T06:15:52;22.30;50.20
48806;DHT22;34625;47.176;27.548;2023-03-14T06:18:18;22.10;42.20
48806;DHT22;34625;47.176;27.548;2023-03-14T06:20:44;22.20;43.20
48806;DHT22;34625;47.176;27.548;2023-03-14T06:23:17;22.10;43.00
48806;DHT22;34625;47.176;27.548;2023-03-14T06:25:43;22.00;42.50
48806;DHT22;34625;47.176;27.548;2023-03-14T06:28:09;22.00;41.40
48806;DHT22;34625;47.176;27.548;2023-03-14T06:30:35;22.10;42.10
48806;DHT22;34625;47.176;27.548;2023-03-14T06:33:02;22.00;39.50
48806;DHT22;34625;47.176;27.548;2023-03-14T06:35:29;22.00;41.40
48806;DHT22;34625;47.176;27.548;2023-03-14T06:37:55;22.00;43.60
48806;DHT22;34625;47.176;27.548;2023-03-14T06:40:21;22.00;49.10
48806;DHT22;34625;47.176;27.548;2023-03-14T06:43:03;22.20;50.40
48806;DHT22;34625;47.176;27.548;2023-03-14T06:45:31;22.10;47.70
48806;DHT22;34625;47.176;27.548;2023-03-14T06:47:59;22.10;52.00
48806;DHT22;34625;47.176;27.548;2023-03-14T06:50:34;22.10;54.50
48806;DHT22;34625;47.176;27.548;2023-03-14T06:53:00;22.10;54.00
48806;DHT22;34625;47.176;27.548;2023-03-14T06:55:27;22.20;51.60
48806;DHT22;34625;47.176;27.548;2023-03-14T06:57:53;22.20;56.30
48806;DHT22;34625;47.176;27.548;2023-03-14T07:00:20;22.30;53.20
48806;DHT22;34625;47.176;27.548;2023-03-14T07:02:46;22.10;53.70
48806;DHT22;34625;47.176;27.548;2023-03-14T07:05:28;22.20;54.00
48806;DHT22;34625;47.176;27.548;2023-03-14T07:07:55;22.30;53.00
48806;DHT22;34625;47.176;27.548;2023-03-14T07:10:22;22.30;49.70
48806;DHT22;34625;47.176;27.548;2023-03-14T07:12:51;22.30;47.10
48806;DHT22;34625;47.176;27.548;2023-03-14T07:15:19;22.30;45.50
48806;DHT22;34625;47.176;27.548;2023-03-14T07:17:49;22.20;47.20
48806;DHT22;34625;47.176;27.548;2023-03-14T07:20:17;22.20;46.40
48806;DHT22;34625;47.176;27.548;2023-03-14T07:22:46;22.10;49.90
48806;DHT22;34625;47.176;27.548;2023-03-14T07:25:12;22.30;51.40
48806;DHT22;34625;47.176;27.548;2023-03-14T07:27:38;22.20;48.90
48806;DHT22;34625;47.176;27.548;2023-03-14T07:30:05;22.20;52.30
48806;DHT22;34625;47.176;27.548;2023-03-14T07:32:31;22.30;46.70
48806;DHT22;34625;47.176;27.548;2023-03-14T07:34:57;22.10;49.40
48806;DHT22;34625;47.176;27.548;2023-03-14T07:37:23;22.10;52.30
48806;DHT22;34625;47.176;27.548;2023-03-14T07:39:49;22.10;49.80
48806;DHT22;34625;47.176;27.548;2023-03-14T07:42:19;22.10;49.10
48806;DHT22;34625;47.176;27.548;2023-03-14T07:44:55;22.00;50.20
48806;DHT22;34625;47.176;27.548;2023-03-14T07:47:21;21.90;50.30
48806;DHT22;34625;47.176;27.548;2023-03-14T07:49:47;22.00;56.10
48806;DHT22;34625;47.176;27.548;2023-03-14T07:52:13;22.00;53.40
48806;DHT22;34625;47.176;27.548;2023-03-14T07:54:39;22.00;55.80
48806;DHT22;34625;47.176;27.548;2023-03-14T07:57:04;21.90;56.10
48806;DHT22;34625;47.176;27.548;2023-03-14T07:59:31;22.10;63.10
48806;DHT22;34625;47.176;27.548;2023-03-14T08:01:57;22.20;63.90
48806;DHT22;34625;47.176;27.548;2023-03-14T08:04:23;22.10;56.20
48806;DHT22;34625;47.176;27.548;2023-03-14T08:06:49;22.10;57.70
48806;DHT22;34625;47.176;27.548;2023-03-14T08:09:15;22.10;58.50
48806;DHT22;34625;47.176;27.548;2023-03-14T08:11:41;22.30;49.90
48806;DHT22;34625;47.176;27.548;2023-03-14T08:14:07;22.40;48.20
48806;DHT22;34625;47.176;27.548;2023-03-14T08:16:33;22.40;44.70
48806;DHT22;34625;47.176;27.548;2023-03-14T08:18:59;22.50;40.80
48806;DHT22;34625;47.176;27.548;2023-03-14T08:21:25;22.60;43.50
48806;DHT22;34625;47.176;27.548;2023-03-14T08:23:51;22.60;62.80
48806;DHT22;34625;47.176;27.548;2023-03-14T08:26:17;22.80;67.70
48806;DHT22;34625;47.176;27.548;2023-03-14T08:28:43;22.70;66.30
48806;DHT22;34625;47.176;27.548;2023-03-14T08:31:09;22.90;66.70
48806;DHT22;34625;47.176;27.548;2023-03-14T08:33:38;22.80;56.80
48806;DHT22;34625;47.176;27.548;2023-03-14T08:36:05;22.90;61.90
48806;DHT22;34625;47.176;27.548;2023-03-14T08:38:31;22.70;55.10
48806;DHT22;34625;47.176;27.548;2023-03-14T08:40:59;22.60;60.80
48806;DHT22;34625;47.176;27.548;2023-03-14T08:43:26;22.60;53.70
48806;DHT22;34625;47.176;27.548;2023-03-14T08:45:52;22.60;59.10
48806;DHT22;34625;47.176;27.548;2023-03-14T08:48:18;22.70;56.80
48806;DHT22;34625;47.176;27.548;2023-03-14T08:50:45;22.50;58.40
48806;DHT22;34625;47.176;27.548;2023-03-14T08:53:12;22.60;60.00
48806;DHT22;34625;47.176;27.548;2023-03-14T08:55:37;22.60;60.50
48806;DHT22;34625;47.176;27.548;2023-03-14T08:58:03;22.60;60.70
48806;DHT22;34625;47.176;27.548;2023-03-14T09:00:29;22.60;58.30
48806;DHT22;34625;47.176;27.548;2023-03-14T09:02:55;22.60;56.90
48806;DHT22;34625;47.176;27.548;2023-03-14T09:05:21;22.50;55.40
48806;DHT22;34625;47.176;27.548;2023-03-14T09:07:47;22.50;52.80
48806;DHT22;34625;47.176;27.548;2023-03-14T09:10:13;22.40;54.10
48806;DHT22;34625;47.176;27.548;2023-03-14T09:12:39;22.40;57.90
48806;DHT22;34625;47.176;27.548;2023-03-14T09:15:06;22.50;56.50
48806;DHT22;34625;47.176;27.548;2023-03-14T09:17:32;22.40;58.00
48806;DHT22;34625;47.176;27.548;2023-03-14T09:19:58;22.50;56.50
48806;DHT22;34625;47.176;27.548;2023-03-14T09:22:24;22.50;58.10
48806;DHT22;34625;47.176;27.548;2023-03-14T09:24:50;22.70;53.90
48806;DHT22;34625;47.176;27.548;2023-03-14T09:27:17;22.80;51.20
48806;DHT22;34625;47.176;27.548;2023-03-14T09:29:42;22.50;51.70
48806;DHT22;34625;47.176;27.548;2023-03-14T09:32:08;22.60;55.40
48806;DHT22;34625;47.176;27.548;2023-03-14T09:34:34;22.70;61.50
48806;DHT22;34625;47.176;27.548;2023-03-14T09:37:00;23.00;63.40
48806;DHT22;34625;47.176;27.548;2023-03-14T09:39:26;23.10;53.70
48806;DHT22;34625;47.176;27.548;2023-03-14T09:41:55;23.30;55.00
48806;DHT22;34625;47.176;27.548;2023-03-14T09:44:30;23.60;55.60
48806;DHT22;34625;47.176;27.548;2023-03-14T09:47:00;23.50;54.90
48806;DHT22;34625;47.176;27.548;2023-03-14T09:49:30;23.40;56.40
48806;DHT22;34625;47.176;27.548;2023-03-14T09:52:00;23.50;52.70
48806;DHT22;34625;47.176;27.548;2023-03-14T09:54:40;23.70;52.90
48806;DHT22;34625;47.176;27.548;2023-03-14T09:57:17;23.90;48.50
48806;DHT22;34625;47.176;27.548;2023-03-14T09:59:45;24.10;53.60
48806;DHT22;34625;47.176;27.548;2023-03-14T10:02:20;24.10;54.70
48806;DHT22;34625;47.176;27.548;2023-03-14T10:04:48;24.10;47.80
48806;DHT22;34625;47.176;27.548;2023-03-14T10:07:17;24.10;53.10
48806;DHT22;34625;47.176;27.548;2023-03-14T10:09:49;24.10;50.20
48806;DHT22;34625;47.176;27.548;2023-03-14T10:12:17;24.00;50.70
48806;DHT22;34625;47.176;27.548;2023-03-14T10:14:49;24.00;54.60
48806;DHT22;34625;47.176;27.548;2023-03-14T10:17:17;24.00;49.40
48806;DHT22;34625;47.176;27.548;2023-03-14T10:19:57;23.90;54.40
48806;DHT22;34625;47.176;27.548;2023-03-14T10:22:30;24.00;55.30
48806;DHT22;34625;47.176;27.548;2023-03-14T10:25:01;24.10;54.70
48806;DHT22;34625;47.176;27.548;2023-03-14T10:27:35;24.00;51.70
48806;DHT22;34625;47.176;27.548;2023-03-14T10:30:05;24.10;52.50
48806;DHT22;34625;47.176;27.548;2023-03-14T10:32:45;24.10;46.80
48806;DHT22;34625;47.176;27.548;2023-03-14T10:37:57;24.30;43.10
48806;DHT22;34625;47.176;27.548;2023-03-14T10:40:47;24.50;47.90
48806;DHT22;34625;47.176;27.548;2023-03-14T10:43:19;24.60;54.50
48806;DHT22;34625;47.176;27.548;2023-03-14T10:45:57;25.20;55.00
48806;DHT22;34625;47.176;27.548;2023-03-14T10:48:30;25.40;50.30
48806;DHT22;34625;47.176;27.548;2023-03-14T10:50:59;25.30;44.60
48806;DHT22;34625;47.176;27.548;2023-03-14T10:53:39;25.30;49.30
48806;DHT22;34625;47.176;27.548;2023-03-14T10:56:06;25.00;48.50
48806;DHT22;34625;47.176;27.548;2023-03-14T10:58:44;25.00;45.60
48806;DHT22;34625;47.176;27.548;2023-03-14T11:04:25;25.30;42.60
48806;DHT22;34625;47.176;27.548;2023-03-14T11:07:03;25.30;38.40
48806;DHT22;34625;47.176;27.548;2023-03-14T11:09:40;25.10;31.60
48806;DHT22;34625;47.176;27.548;2023-03-14T11:15:04;24.90;49.80
48806;DHT22;34625;47.176;27.548;2023-03-14T11:17:41;25.00;48.40
48806;DHT22;34625;47.176;27.548;2023-03-14T11:22:48;24.70;45.30
48806;DHT22;34625;47.176;27.548;2023-03-14T11:25:47;24.60;47.80
48806;DHT22;34625;47.176;27.548;2023-03-14T11:28:26;24.60;50.60
48806;DHT22;34625;47.176;27.548;2023-03-14T11:31:03;24.50;45.40
48806;DHT22;34625;47.176;27.548;2023-03-14T11:33:37;24.50;46.70
48806;DHT22;34625;47.176;27.548;2023-03-14T11:36:12;24.20;52.00
48806;DHT22;34625;47.176;27.548;2023-03-14T11:38:58;24.40;47.90
48806;DHT22;34625;47.176;27.548;2023-03-14T11:43:55;24.30;48.60
48806;DHT22;34625;47.176;27.548;2023-03-14T11:49:08;24.60;54.30
48806;DHT22;34625;47.176;27.548;2023-03-14T11:51:43;24.70;59.00
48806;DHT22;34625;47.176;27.548;2023-03-14T11:54:35;24.80;63.80
48806;DHT22;34625;47.176;27.548;2023-03-14T11:57:11;25.10;64.80
48806;DHT22;34625;47.176;27.548;2023-03-14T11:59:41;25.30;64.00
48806;DHT22;34625;47.176;27.548;2023-03-14T12:10:55;24.70;50.80
48806;DHT22;34625;47.176;27.548;2023-03-14T12:13:22;24.70;53.00
48806;DHT22;34625;47.176;27.548;2023-03-14T12:16:01;24.70;54.50
48806;DHT22;34625;47.176;27.548;2023-03-14T12:18:34;24.50;53.80
48806;DHT22;34625;47.176;27.548;2023-03-14T12:21:06;24.40;48.70
48806;DHT22;34625;47.176;27.548;2023-03-14T12:23:44;24.40;52.80
48806;DHT22;34625;47.176;27.548;2023-03-14T12:26:17;24.30;53.70
48806;DHT22;34625;47.176;27.548;2023-03-14T12:31:41;24.30;50.90
48806;DHT22;34625;47.176;27.548;2023-03-14T12:42:04;24.30;56.80
48806;DHT22;34625;47.176;27.548;2023-03-14T12:47:00;24.20;53.40
48806;DHT22;34625;47.176;27.548;2023-03-14T12:49:31;24.30;56.20
48806;DHT22;34625;47.176;27.548;2023-03-14T12:52:01;24.30;52.60
48806;DHT22;34625;47.176;27.548;2023-03-14T12:54:36;24.30;55.60
48806;DHT22;34625;47.176;27.548;2023-03-14T12:59:56;24.40;55.00
48806;DHT22;34625;47.176;27.548;2023-03-14T13:02:41;24.50;49.10
48806;DHT22;34625;47.176;27.548;2023-03-14T13:05:23;24.40;53.70
48806;DHT22;34625;47.176;27.548;2023-03-14T13:10:25;24.40;55.60
48806;DHT22;34625;47.176;27.548;2023-03-14T13:13:21;24.50;54.90
48806;DHT22;34625;47.176;27.548;2023-03-14T13:15:49;24.40;50.80
48806;DHT22;34625;47.176;27.548;2023-03-14T13:23:34;24.40;55.80
48806;DHT22;34625;47.176;27.548;2023-03-14T13:26:01;24.50;55.80
48806;DHT22;34625;47.176;27.548;2023-03-14T13:28:30;24.40;52.30
48806;DHT22;34625;47.176;27.548;2023-03-14T13:31:01;24.30;50.60
48806;DHT22;34625;47.176;27.548;2023-03-14T13:33:28;24.40;49.90
48806;DHT22;34625;47.176;27.548;2023-03-14T13:36:02;24.40;52.80
48806;DHT22;34625;47.176;27.548;2023-03-14T13:38:31;24.30;53.50
48806;DHT22;34625;47.176;27.548;2023-03-14T13:40:59;24.40;50.00
48806;DHT22;34625;47.176;27.548;2023-03-14T13:43:32;24.30;54.90
48806;DHT22;34625;47.176;27.548;2023-03-14T13:46:14;24.30;54.50
48806;DHT22;34625;47.176;27.548;2023-03-14T13:49:04;24.40;51.40
48806;DHT22;34625;47.176;27.548;2023-03-14T13:51:32;24.30;54.10
48806;DHT22;34625;47.176;27.548;2023-03-14T13:54:01;24.30;55.10
48806;DHT22;34625;47.176;27.548;2023-03-14T13:56:32;24.50;49.70
48806;DHT22;34625;47.176;27.548;2023-03-14T13:58:58;24.40;53.80
48806;DHT22;34625;47.176;27.548;2023-03-14T14:01:32;24.40;53.20
48806;DHT22;34625;47.176;27.548;2023-03-14T14:04:07;24.40;54.30
48806;DHT22;34625;47.176;27.548;2023-03-14T14:06:39;24.30;49.80
48806;DHT22;34625;47.176;27.548;2023-03-14T14:09:16;24.30;48.60
48806;DHT22;34625;47.176;27.548;2023-03-14T14:12:06;24.20;54.40
48806;DHT22;34625;47.176;27.548;2023-03-14T14:14:52;24.20;54.50
48806;DHT22;34625;47.176;27.548;2023-03-14T14:17:24;24.10;52.90
48806;DHT22;34625;47.176;27.548;2023-03-14T14:19:52;24.10;47.30
48806;DHT22;34625;47.176;27.548;2023-03-14T14:22:19;24.10;55.80
48806;DHT22;34625;47.176;27.548;2023-03-14T14:24:46;24.20;55.70
48806;DHT22;34625;47.176;27.548;2023-03-14T14:27:18;24.10;48.50
48806;DHT22;34625;47.176;27.548;2023-03-14T14:29:58;24.20;56.10
48806;DHT22;34625;47.176;27.548;2023-03-14T14:32:25;24.40;55.40
48806;DHT22;34625;47.176;27.548;2023-03-14T14:39:49;24.30;56.40
48806;DHT22;34625;47.176;27.548;2023-03-14T14:42:19;24.20;52.10
48806;DHT22;34625;47.176;27.548;2023-03-14T14:44:48;24.10;52.30
48806;DHT22;34625;47.176;27.548;2023-03-14T14:47:22;24.00;46.80
48806;DHT22;34625;47.176;27.548;2023-03-14T14:49:51;24.00;54.30
48806;DHT22;34625;47.176;27.548;2023-03-14T14:52:20;23.90;54.30
48806;DHT22;34625;47.176;27.548;2023-03-14T14:57:23;23.80;51.10
48806;DHT22;34625;47.176;27.548;2023-03-14T14:59:50;23.80;51.70
48806;DHT22;34625;47.176;27.548;2023-03-14T15:02:36;23.70;51.00
48806;DHT22;34625;47.176;27.548;2023-03-14T15:05:11;23.70;47.30
48806;DHT22;34625;47.176;27.548;2023-03-14T15:07:37;23.60;51.20
48806;DHT22;34625;47.176;27.548;2023-03-14T15:10:04;23.60;53.20
48806;DHT22;34625;47.176;27.548;2023-03-14T15:12:30;23.70;55.30
48806;DHT22;34625;47.176;27.548;2023-03-14T15:14:56;23.70;56.30
48806;DHT22;34625;47.176;27.548;2023-03-14T15:17:23;23.70;46.10
48806;DHT22;34625;47.176;27.548;2023-03-14T15:19:50;23.60;52.20
48806;DHT22;34625;47.176;27.548;2023-03-14T15:22:16;23.50;53.00
48806;DHT22;34625;47.176;27.548;2023-03-14T15:24:42;23.40;45.90
48806;DHT22;34625;47.176;27.548;2023-03-14T15:27:13;23.60;52.10
48806;DHT22;34625;47.176;27.548;2023-03-14T15:29:41;23.40;54.60
48806;DHT22;34625;47.176;27.548;2023-03-14T15:32:16;23.60;58.40
48806;DHT22;34625;47.176;27.548;2023-03-14T15:34:43;23.70;55.10
48806;DHT22;34625;47.176;27.548;2023-03-14T15:37:14;23.50;47.60
48806;DHT22;34625;47.176;27.548;2023-03-14T15:39:42;23.60;55.30
48806;DHT22;34625;47.176;27.548;2023-03-14T15:42:09;23.90;51.70
48806;DHT22;34625;47.176;27.548;2023-03-14T15:44:35;23.90;42.90
48806;DHT22;34625;47.176;27.548;2023-03-14T15:47:01;23.90;43.40
48806;DHT22;34625;47.176;27.548;2023-03-14T15:49:28;24.10;42.70
48806;DHT22;34625;47.176;27.548;2023-03-14T15:51:54;24.10;52.60
48806;DHT22;34625;47.176;27.548;2023-03-14T15:54:20;24.10;57.00
48806;DHT22;34625;47.176;27.548;2023-03-14T15:56:46;24.10;55.30
48806;DHT22;34625;47.176;27.548;2023-03-14T15:59:12;24.10;56.50
48806;DHT22;34625;47.176;27.548;2023-03-14T16:01:38;24.00;57.20
48806;DHT22;34625;47.176;27.548;2023-03-14T16:04:04;24.00;51.60
48806;DHT22;34625;47.176;27.548;2023-03-14T16:06:30;24.00;53.80
48806;DHT22;34625;47.176;27.548;2023-03-14T16:09:01;24.00;52.30
48806;DHT22;34625;47.176;27.548;2023-03-14T16:11:26;24.00;52.40
48806;DHT22;34625;47.176;27.548;2023-03-14T16:13:52;24.00;56.10
48806;DHT22;34625;47.176;27.548;2023-03-14T16:16:19;24.00;53.50
48806;DHT22;34625;47.176;27.548;2023-03-14T16:18:45;24.20;56.50
48806;DHT22;34625;47.176;27.548;2023-03-14T16:21:15;24.10;55.30
48806;DHT22;34625;47.176;27.548;2023-03-14T16:23:42;24.10;48.50
48806;DHT22;34625;47.176;27.548;2023-03-14T16:26:11;24.00;51.60
48806;DHT22;34625;47.176;27.548;2023-03-14T16:28:38;24.00;46.90
48806;DHT22;34625;47.176;27.548;2023-03-14T16:31:06;24.00;54.40
48806;DHT22;34625;47.176;27.548;2023-03-14T16:33:34;24.40;50.90